Time;durP1;ratioP1;P1;durP2;ratioP2;P2;SDS_P1;SDS_P2;PMS_P1;PMS_P2;Temp;Humidity;BMP_temperature;BMP_pressure;BME280_temperature;BME280_humidity;BME280_pressure;Samples;Min_cycle;Max_cycle;Signal;HPM_P1;HPM_P2
2023/12/22 00:01:26;;;;;;;0.60;0.40;;;6.60;99.90;;;;;;5055529;28;20449;-82
2023/12/22 00:03:53;;;;;;;0.80;0.30;;;6.60;99.90;;;;;;5055183;28;20446;-82
2023/12/22 00:06:20;;;;;;;0.53;0.47;;;6.60;99.90;;;;;;5055240;28;20438;-83
2023/12/22 00:08:48;;;;;;;0.30;0.30;;;6.60;99.90;;;;;;5054883;28;20497;-82
2023/12/22 00:11:14;;;;;;;0.40;0.30;;;6.50;99.90;;;;;;5054623;28;20441;-82
2023/12/22 00:13:41;;;;;;;0.40;0.40;;;6.50;99.90;;;;;;5055960;28;20454;-81
2023/12/22 00:16:08;;;;;;;0.30;0.30;;;6.50;99.90;;;;;;5055354;28;20450;-82
2023/12/22 00:18:34;;;;;;;0.50;0.30;;;6.50;99.90;;;;;;5055322;28;20831;-81
2023/12/22 00:21:01;;;;;;;5.20;0.40;;;6.50;99.90;;;;;;5055571;28;20438;-82
2023/12/22 00:23:28;;;;;;;0.30;0.30;;;6.40;99.90;;;;;;5054691;28;20445;-82
2023/12/22 00:25:56;;;;;;;7.60;1.03;;;6.30;99.90;;;;;;5054970;28;20935;-81
2023/12/22 00:28:23;;;;;;;0.40;0.40;;;6.40;99.90;;;;;;5054484;28;20481;-82
2023/12/22 00:30:49;;;;;;;3.20;0.40;;;6.40;99.90;;;;;;5054724;28;20450;-82
2023/12/22 00:33:16;;;;;;;0.30;0.30;;;6.40;99.90;;;;;;5054488;28;20440;-82
2023/12/22 00:35:43;;;;;;;0.60;0.60;;;6.40;99.90;;;;;;5054443;28;20492;-82
2023/12/22 00:38:10;;;;;;;0.60;0.60;;;6.40;99.90;;;;;;5054747;28;20466;-82
2023/12/22 00:40:37;;;;;;;0.30;0.30;;;6.30;99.90;;;;;;5054874;28;20449;-82
2023/12/22 00:43:05;;;;;;;0.40;0.30;;;6.30;99.90;;;;;;5055373;28;20441;-81
2023/12/22 00:45:32;;;;;;;0.30;0.27;;;6.20;99.90;;;;;;5055411;28;20442;-82
2023/12/22 00:47:58;;;;;;;0.30;0.30;;;6.20;99.90;;;;;;5055092;28;20570;-81
2023/12/22 00:50:25;;;;;;;0.40;0.40;;;6.20;99.90;;;;;;5055451;28;20435;-80
2023/12/22 00:52:52;;;;;;;0.63;0.40;;;6.10;99.90;;;;;;5055773;28;20445;-82
2023/12/22 00:55:20;;;;;;;0.40;0.40;;;6.10;99.90;;;;;;5055066;28;20505;-81
2023/12/22 00:57:47;;;;;;;0.30;0.30;;;6.00;99.90;;;;;;5062444;28;20482;-81
2023/12/22 01:00:16;;;;;;;0.40;0.30;;;6.00;99.90;;;;;;5053923;28;20445;-82
2023/12/22 01:02:43;;;;;;;0.57;0.50;;;6.00;99.90;;;;;;5054608;28;20474;-81
2023/12/22 01:05:11;;;;;;;1.60;0.43;;;6.00;99.90;;;;;;5054432;28;20453;-80
2023/12/22 01:07:37;;;;;;;0.40;0.40;;;6.00;99.90;;;;;;5055220;28;20539;-81
2023/12/22 01:10:05;;;;;;;0.30;0.30;;;6.00;99.90;;;;;;5058301;28;20450;-80
2023/12/22 01:12:31;;;;;;;0.30;0.30;;;6.00;99.90;;;;;;5058353;28;20453;-81
2023/12/22 01:14:58;;;;;;;0.30;0.20;;;6.00;99.90;;;;;;5058979;28;20453;-81
2023/12/22 01:17:26;;;;;;;0.30;0.30;;;6.00;99.90;;;;;;5058626;28;20476;-81
2023/12/22 01:19:53;;;;;;;0.30;0.30;;;6.00;99.90;;;;;;5058793;28;20445;-81
2023/12/22 01:22:20;;;;;;;0.53;0.40;;;6.00;99.90;;;;;;5058148;28;20446;-81
2023/12/22 01:24:46;;;;;;;0.50;0.40;;;6.00;99.90;;;;;;5057688;28;20455;-81
2023/12/22 01:27:13;;;;;;;0.30;0.27;;;6.00;99.90;;;;;;5058158;28;20492;-81
2023/12/22 01:29:40;;;;;;;0.30;0.30;;;6.00;99.90;;;;;;5058270;28;20488;-80
2023/12/22 01:32:07;;;;;;;0.40;0.30;;;6.10;99.90;;;;;;5058211;28;20452;-81
2023/12/22 01:34:35;;;;;;;0.30;0.30;;;6.00;99.90;;;;;;5057893;28;20446;-81
2023/12/22 01:37:02;;;;;;;0.30;0.30;;;6.10;99.90;;;;;;5057892;28;20469;-80
2023/12/22 01:39:28;;;;;;;0.53;0.53;;;6.10;99.90;;;;;;5058048;28;20448;-81
2023/12/22 01:41:55;;;;;;;0.30;0.30;;;6.00;99.90;;;;;;5058103;28;20449;-81
2023/12/22 01:44:22;;;;;;;0.30;0.20;;;6.00;99.90;;;;;;5057834;28;20456;-82
2023/12/22 01:46:50;;;;;;;0.30;0.20;;;6.00;99.90;;;;;;5057591;28;20450;-81
2023/12/22 01:49:17;;;;;;;0.30;0.30;;;6.00;99.90;;;;;;5058309;28;20489;-80
2023/12/22 01:51:45;;;;;;;0.30;0.23;;;6.00;99.90;;;;;;5057985;28;20855;-81
2023/12/22 01:54:13;;;;;;;0.30;0.30;;;6.00;99.90;;;;;;5057967;28;20458;-81
2023/12/22 01:56:39;;;;;;;0.30;0.20;;;6.00;99.90;;;;;;5058324;28;20962;-81
2023/12/22 01:59:07;;;;;;;0.30;0.30;;;6.00;99.90;;;;;;5058521;28;20442;-80
2023/12/22 02:01:34;;;;;;;0.30;0.30;;;6.00;99.90;;;;;;5058603;28;20442;-81
2023/12/22 02:04:01;;;;;;;2.23;0.40;;;6.00;99.90;;;;;;5058592;28;20446;-81
2023/12/22 02:06:30;;;;;;;0.53;0.53;;;6.00;99.90;;;;;;5058319;28;20457;-80
2023/12/22 02:08:58;;;;;;;0.47;0.40;;;5.90;99.90;;;;;;5057876;28;20485;-81
2023/12/22 02:11:25;;;;;;;0.40;0.30;;;5.90;99.90;;;;;;5057906;28;20449;-80
2023/12/22 02:13:52;;;;;;;0.30;0.30;;;5.90;99.90;;;;;;5058327;28;20473;-81
2023/12/22 02:16:26;;;;;;;0.30;0.30;;;5.90;99.90;;;;;;5058316;28;20442;-81
2023/12/22 02:18:57;;;;;;;0.70;0.40;;;5.80;99.90;;;;;;5057462;28;20414;-81
2023/12/22 02:21:23;;;;;;;0.50;0.50;;;5.90;99.90;;;;;;5058037;28;20449;-82
2023/12/22 02:23:51;;;;;;;0.30;0.30;;;5.80;99.90;;;;;;5057265;28;20449;-81
2023/12/22 02:26:27;;;;;;;0.30;0.30;;;5.80;99.90;;;;;;5057083;28;20450;-81
2023/12/22 02:28:57;;;;;;;0.40;0.40;;;5.80;99.90;;;;;;5057789;28;20469;-80
2023/12/22 02:31:34;;;;;;;7.73;0.33;;;5.80;99.90;;;;;;5057723;28;20774;-80
2023/12/22 02:34:02;;;;;;;2.53;0.30;;;5.90;99.90;;;;;;5057663;28;20425;-80
2023/12/22 02:36:30;;;;;;;1.60;0.30;;;5.90;99.90;;;;;;5058088;28;20454;-80
2023/12/22 02:38:59;;;;;;;0.40;0.30;;;6.00;99.90;;;;;;5058201;28;20434;-81
2023/12/22 02:41:26;;;;;;;0.43;0.43;;;6.00;99.90;;;;;;5057565;28;20457;-81
2023/12/22 02:43:53;;;;;;;0.40;0.33;;;6.10;99.90;;;;;;5057626;28;20799;-81
2023/12/22 02:46:20;;;;;;;0.30;0.23;;;6.10;99.90;;;;;;5057365;28;20450;-83
2023/12/22 02:48:47;;;;;;;0.40;0.40;;;6.20;99.90;;;;;;5057486;28;20842;-81
2023/12/22 02:51:13;;;;;;;5.20;0.70;;;6.20;99.90;;;;;;5057269;28;20446;-80
2023/12/22 02:53:40;;;;;;;0.40;0.40;;;6.30;99.90;;;;;;5057143;28;20457;-81
2023/12/22 02:56:08;;;;;;;0.60;0.40;;;6.30;99.90;;;;;;5056556;28;20446;-80
2023/12/22 02:58:35;;;;;;;0.30;0.20;;;6.30;99.90;;;;;;5056507;28;20458;-81
2023/12/22 03:01:02;;;;;;;0.50;0.30;;;6.40;99.90;;;;;;5056804;28;20841;-81
2023/12/22 03:03:28;;;;;;;0.37;0.37;;;6.40;99.90;;;;;;5057478;28;20449;-79
2023/12/22 03:05:55;;;;;;;0.60;0.30;;;6.40;99.90;;;;;;5056934;28;20444;-79
2023/12/22 03:08:22;;;;;;;0.30;0.20;;;6.40;99.90;;;;;;5064472;28;20481;-81
2023/12/22 03:10:48;;;;;;;0.30;0.20;;;6.40;99.90;;;;;;5055979;28;20454;-79
2023/12/22 03:13:16;;;;;;;0.30;0.30;;;6.40;99.90;;;;;;5055832;28;20450;-81
2023/12/22 03:15:43;;;;;;;3.33;0.40;;;6.40;99.90;;;;;;5055734;28;20468;-81
2023/12/22 03:18:10;;;;;;;0.40;0.40;;;6.40;99.90;;;;;;5055721;28;20545;-81
2023/12/22 03:20:36;;;;;;;0.40;0.40;;;6.40;99.90;;;;;;5056518;28;20446;-81
2023/12/22 03:23:03;;;;;;;0.50;0.30;;;6.40;99.90;;;;;;5056327;28;20449;-80
2023/12/22 03:25:30;;;;;;;0.30;0.27;;;6.40;99.90;;;;;;5056061;28;20438;-81
2023/12/22 03:27:57;;;;;;;0.30;0.30;;;6.40;99.90;;;;;;5055981;28;20553;-81
2023/12/22 03:30:25;;;;;;;0.40;0.40;;;6.40;99.90;;;;;;5055904;28;20482;-81
2023/12/22 03:32:52;;;;;;;0.30;0.30;;;6.40;99.90;;;;;;5056056;28;20450;-80
2023/12/22 03:35:18;;;;;;;0.30;0.30;;;6.40;99.90;;;;;;5056546;28;20445;-81
2023/12/22 03:37:45;;;;;;;0.60;0.30;;;6.50;99.90;;;;;;5056313;28;20454;-80
2023/12/22 03:40:12;;;;;;;0.30;0.27;;;6.50;99.90;;;;;;5056852;28;20434;-81
2023/12/22 03:42:39;;;;;;;8.87;0.50;;;6.50;99.90;;;;;;5055920;28;20442;-80
2023/12/22 03:45:07;;;;;;;0.30;0.20;;;6.50;99.90;;;;;;5055791;28;20438;-80
2023/12/22 03:47:35;;;;;;;1.23;0.37;;;6.50;99.90;;;;;;5056086;28;20493;-81
2023/12/22 03:50:01;;;;;;;0.30;0.30;;;6.50;99.90;;;;;;5055321;28;20473;-81
2023/12/22 03:52:28;;;;;;;0.30;0.30;;;6.50;99.90;;;;;;5055746;28;20826;-81
2023/12/22 03:54:55;;;;;;;0.40;0.30;;;6.60;99.90;;;;;;5056226;28;20453;-81
2023/12/22 03:57:22;;;;;;;0.40;0.40;;;6.60;99.90;;;;;;5055652;28;21013;-81
2023/12/22 03:59:48;;;;;;;1.33;0.40;;;6.50;99.90;;;;;;5055475;28;20440;-81
2023/12/22 04:02:15;;;;;;;0.30;0.30;;;6.50;99.90;;;;;;5055401;28;20457;-81
2023/12/22 04:04:43;;;;;;;1.33;0.60;;;6.60;99.90;;;;;;5055914;28;20450;-81
2023/12/22 04:07:10;;;;;;;4.93;1.13;;;6.60;99.90;;;;;;5055064;28;20478;-81
2023/12/22 04:09:38;;;;;;;0.40;0.40;;;6.60;99.90;;;;;;5055496;28;20568;-80
2023/12/22 04:12:05;;;;;;;0.40;0.40;;;6.60;99.90;;;;;;5056243;28;20450;-81
2023/12/22 04:14:32;;;;;;;0.30;0.30;;;6.70;99.90;;;;;;5055794;28;20557;-81
2023/12/22 04:16:59;;;;;;;0.53;0.50;;;6.70;99.90;;;;;;5055535;28;20465;-81
2023/12/22 04:19:26;;;;;;;0.43;0.37;;;6.70;99.90;;;;;;5055090;28;20855;-81
2023/12/22 04:21:54;;;;;;;0.30;0.27;;;6.70;99.90;;;;;;5055073;28;20992;-81
2023/12/22 04:24:20;;;;;;;0.83;0.50;;;6.70;99.90;;;;;;5055722;28;20446;-80
2023/12/22 04:26:47;;;;;;;2.40;0.60;;;6.70;99.90;;;;;;5055878;28;20469;-81
2023/12/22 04:29:15;;;;;;;2.10;0.70;;;6.70;99.90;;;;;;5056014;28;20480;-83
2023/12/22 04:31:41;;;;;;;4.20;0.50;;;6.50;99.90;;;;;;5056926;28;20981;-81
2023/12/22 04:34:08;;;;;;;0.60;0.30;;;6.40;99.90;;;;;;5056362;28;20970;-81
2023/12/22 04:36:35;;;;;;;0.30;0.20;;;6.30;99.90;;;;;;5056649;28;20862;-81
2023/12/22 04:39:03;;;;;;;0.40;0.30;;;6.10;99.90;;;;;;5055672;28;20437;-81
2023/12/22 04:41:30;;;;;;;0.30;0.20;;;6.10;99.90;;;;;;5055508;28;20838;-81
2023/12/22 04:43:57;;;;;;;0.30;0.30;;;5.90;99.90;;;;;;5059108;28;20445;-81
2023/12/22 04:46:24;;;;;;;0.40;0.30;;;5.80;99.90;;;;;;5059545;28;20453;-81
2023/12/22 04:48:50;;;;;;;0.40;0.30;;;5.70;99.90;;;;;;5059761;28;20840;-81
2023/12/22 04:51:17;;;;;;;1.43;0.57;;;5.60;99.90;;;;;;5059535;28;20450;-81
2023/12/22 04:53:44;;;;;;;4.87;0.80;;;5.60;99.90;;;;;;5059829;28;20430;-80
2023/12/22 04:56:12;;;;;;;3.43;0.50;;;5.60;99.90;;;;;;5059462;28;20939;-80
2023/12/22 04:58:38;;;;;;;0.30;0.30;;;5.60;99.90;;;;;;5059435;28;20461;-80
2023/12/22 05:01:05;;;;;;;0.30;0.30;;;5.50;99.90;;;;;;5059885;28;20778;-80
2023/12/22 05:03:32;;;;;;;0.63;0.30;;;5.60;99.90;;;;;;5059565;28;20447;-80
2023/12/22 05:05:58;;;;;;;0.60;0.40;;;5.60;99.90;;;;;;5059394;28;20450;-81
2023/12/22 05:08:25;;;;;;;0.67;0.33;;;5.50;99.90;;;;;;5059335;28;20576;-80
2023/12/22 05:10:51;;;;;;;0.30;0.30;;;5.50;99.90;;;;;;5059247;28;20504;-80
2023/12/22 05:13:19;;;;;;;0.30;0.30;;;5.50;99.90;;;;;;5059246;28;20840;-81
2023/12/22 05:15:46;;;;;;;0.30;0.27;;;5.50;99.90;;;;;;5059234;28;20211;-80
2023/12/22 05:18:12;;;;;;;0.30;0.30;;;5.40;99.90;;;;;;5060447;28;20465;-80
2023/12/22 05:20:39;;;;;;;0.33;0.33;;;5.40;99.90;;;;;;5064003;28;20437;-80
2023/12/22 05:23:06;;;;;;;0.30;0.30;;;5.40;99.90;;;;;;5057687;28;20440;-79
2023/12/22 05:25:32;;;;;;;0.30;0.23;;;5.50;99.90;;;;;;5058117;28;20450;-80
2023/12/22 05:27:59;;;;;;;1.90;0.50;;;5.60;99.90;;;;;;5058128;28;20473;-80
2023/12/22 05:30:27;;;;;;;0.77;0.40;;;5.60;99.90;;;;;;5058667;28;20469;-80
2023/12/22 05:32:54;;;;;;;0.60;0.50;;;5.60;99.90;;;;;;5058064;28;20445;-81
2023/12/22 05:35:21;;;;;;;0.40;0.40;;;5.70;99.90;;;;;;5058428;28;20806;-80
2023/12/22 05:37:48;;;;;;;0.30;0.30;;;5.70;99.90;;;;;;5058048;28;20462;-81
2023/12/22 05:40:14;;;;;;;21.53;1.37;;;5.70;99.90;;;;;;5058269;28;20465;-81
2023/12/22 05:42:41;;;;;;;0.30;0.30;;;5.80;99.90;;;;;;5058234;28;20438;-80
2023/12/22 05:45:10;;;;;;;0.50;0.50;;;5.80;99.90;;;;;;5057991;28;20445;-81
2023/12/22 05:47:39;;;;;;;0.60;0.33;;;5.90;99.90;;;;;;5058353;28;20462;-81
2023/12/22 05:50:06;;;;;;;0.50;0.50;;;5.90;99.90;;;;;;5057802;28;20469;-80
2023/12/22 05:52:33;;;;;;;4.20;0.57;;;5.90;99.90;;;;;;5058265;28;20450;-80
2023/12/22 05:55:00;;;;;;;0.30;0.30;;;6.00;99.90;;;;;;5056632;28;20437;-81
2023/12/22 05:57:26;;;;;;;0.30;0.30;;;6.00;99.90;;;;;;5058136;28;20846;-81
2023/12/22 05:59:53;;;;;;;2.87;0.60;;;6.00;99.90;;;;;;5058927;28;20445;-81
2023/12/22 06:02:20;;;;;;;0.30;0.30;;;6.00;99.90;;;;;;5058668;28;20446;-81
2023/12/22 06:04:48;;;;;;;0.40;0.33;;;5.90;99.90;;;;;;5058929;28;20446;-81
2023/12/22 06:07:14;;;;;;;4.40;0.83;;;5.90;99.90;;;;;;5059216;28;20477;-81
2023/12/22 06:09:41;;;;;;;6.10;1.60;;;5.90;99.90;;;;;;5058541;28;20489;-81
2023/12/22 06:12:08;;;;;;;1.33;0.30;;;5.70;99.90;;;;;;5058515;28;20461;-81
2023/12/22 06:14:35;;;;;;;0.30;0.30;;;5.70;99.90;;;;;;5059131;28;20438;-82
2023/12/22 06:17:02;;;;;;;0.97;0.50;;;5.60;99.90;;;;;;5058616;28;20454;-80
2023/12/22 06:19:30;;;;;;;1.30;0.50;;;5.60;99.90;;;;;;5058427;28;20446;-81
2023/12/22 06:21:59;;;;;;;0.50;0.40;;;5.60;99.90;;;;;;5058242;28;20450;-81
2023/12/22 06:24:26;;;;;;;0.50;0.30;;;5.60;99.90;;;;;;5058499;28;20458;-80
2023/12/22 06:26:53;;;;;;;0.50;0.40;;;5.60;99.90;;;;;;5058223;28;20466;-81
2023/12/22 06:29:20;;;;;;;3.30;0.40;;;5.50;99.90;;;;;;5058644;28;20460;-81
2023/12/22 06:31:50;;;;;;;0.50;0.30;;;5.50;99.90;;;;;;5059005;28;20441;-82
2023/12/22 06:34:17;;;;;;;1.80;0.50;;;5.50;99.90;;;;;;5059360;28;20457;-81
2023/12/22 06:36:44;;;;;;;1.70;0.60;;;5.50;99.90;;;;;;5058310;28;20570;-81
2023/12/22 06:39:12;;;;;;;6.33;0.60;;;5.50;99.90;;;;;;5058561;28;20453;-81
2023/12/22 06:41:38;;;;;;;0.40;0.30;;;5.50;99.90;;;;;;5058170;28;20947;-81
2023/12/22 06:44:05;;;;;;;5.83;0.50;;;5.50;99.90;;;;;;5058339;28;20453;-81
2023/12/22 06:46:32;;;;;;;0.50;0.40;;;5.50;99.90;;;;;;5057781;28;20445;-81
2023/12/22 06:48:59;;;;;;;0.60;0.40;;;5.50;99.90;;;;;;5057654;28;20449;-81
2023/12/22 06:51:28;;;;;;;0.40;0.40;;;5.50;99.90;;;;;;5057626;28;21006;-81
2023/12/22 06:53:55;;;;;;;2.30;0.50;;;5.50;99.90;;;;;;5057414;28;20449;-81
2023/12/22 06:56:25;;;;;;;0.97;0.40;;;5.50;99.90;;;;;;5057021;28;20500;-81
2023/12/22 06:58:53;;;;;;;2.10;0.50;;;5.50;99.90;;;;;;5057345;28;20460;-81
2023/12/22 07:01:21;;;;;;;1.23;0.60;;;5.50;99.90;;;;;;5061683;28;20456;-83
2023/12/22 07:03:48;;;;;;;0.87;0.50;;;5.50;99.90;;;;;;5061052;28;20442;-84
2023/12/22 07:06:15;;;;;;;0.30;0.30;;;5.50;99.90;;;;;;5059360;28;20487;-82
2023/12/22 07:08:42;;;;;;;4.47;0.73;;;5.50;99.90;;;;;;5059500;28;21020;-82
2023/12/22 07:11:09;;;;;;;0.50;0.30;;;5.50;99.90;;;;;;5059936;28;20478;-83
2023/12/22 07:13:37;;;;;;;0.30;0.30;;;5.50;99.90;;;;;;5059380;28;20446;-84
2023/12/22 07:16:04;;;;;;;0.30;0.30;;;5.50;99.90;;;;;;5058594;28;20457;-83
2023/12/22 07:18:31;;;;;;;1.60;0.57;;;5.50;99.90;;;;;;5058020;28;20464;-83
2023/12/22 07:20:58;;;;;;;0.97;0.40;;;5.50;99.90;;;;;;5058554;28;20496;-84
2023/12/22 07:23:25;;;;;;;0.40;0.30;;;5.50;99.90;;;;;;5058100;28;20449;-84
2023/12/22 07:25:51;;;;;;;0.30;0.20;;;5.50;99.90;;;;;;5057572;28;20434;-83
2023/12/22 07:28:18;;;;;;;0.40;0.40;;;5.50;99.90;;;;;;5057932;28;20469;-82
2023/12/22 07:30:46;;;;;;;0.50;0.50;;;5.50;99.90;;;;;;5063930;28;20486;-82
2023/12/22 07:33:13;;;;;;;0.30;0.30;;;5.50;99.90;;;;;;5054440;28;20434;-83
2023/12/22 07:35:40;;;;;;;0.30;0.30;;;5.50;99.90;;;;;;5054516;28;20429;-84
2023/12/22 07:38:06;;;;;;;0.77;0.47;;;5.50;99.90;;;;;;5054738;28;20477;-84
2023/12/22 07:40:33;;;;;;;0.40;0.40;;;5.50;99.90;;;;;;5054460;28;20946;-85
2023/12/22 07:43:00;;;;;;;0.30;0.30;;;5.50;99.90;;;;;;5055222;28;20493;-85
2023/12/22 07:45:28;;;;;;;0.30;0.30;;;5.50;99.90;;;;;;5054705;28;20442;-85
2023/12/22 07:47:56;;;;;;;2.20;0.30;;;5.50;99.90;;;;;;5055047;28;20505;-85
2023/12/22 07:50:23;;;;;;;0.40;0.40;;;5.50;99.90;;;;;;5055421;28;20511;-83
2023/12/22 07:52:50;;;;;;;2.10;0.30;;;5.60;99.90;;;;;;5055744;28;20919;-85
2023/12/22 07:55:16;;;;;;;0.30;0.30;;;5.50;99.90;;;;;;5055531;28;20814;-84
2023/12/22 07:57:43;;;;;;;0.50;0.50;;;5.50;99.90;;;;;;5055526;28;20457;-85
2023/12/22 08:00:11;;;;;;;0.30;0.30;;;5.60;99.90;;;;;;5056189;28;20440;-85
2023/12/22 08:02:38;;;;;;;0.40;0.30;;;5.60;99.90;;;;;;5055352;28;20434;-85
2023/12/22 08:05:06;;;;;;;0.40;0.40;;;5.60;99.90;;;;;;5055474;28;20442;-84
2023/12/22 08:07:33;;;;;;;0.30;0.30;;;5.60;99.90;;;;;;5055671;28;20982;-84
2023/12/22 08:10:01;;;;;;;0.77;0.37;;;5.60;99.90;;;;;;5056403;28;20450;-83
2023/12/22 08:12:28;;;;;;;0.33;0.30;;;5.50;99.90;;;;;;5056637;28;20445;-85
2023/12/22 08:14:54;;;;;;;0.40;0.40;;;5.60;99.90;;;;;;5057461;28;20445;-84
2023/12/22 08:17:21;;;;;;;0.30;0.30;;;5.60;99.90;;;;;;5056949;28;20470;-84
2023/12/22 08:19:48;;;;;;;0.30;0.30;;;5.70;99.90;;;;;;5056986;28;20449;-85
2023/12/22 08:22:16;;;;;;;0.93;0.40;;;5.70;99.90;;;;;;5057251;28;20456;-84
2023/12/22 08:24:43;;;;;;;2.50;0.40;;;5.70;99.90;;;;;;5056488;28;20457;-84
2023/12/22 08:27:10;;;;;;;5.30;0.50;;;5.70;99.90;;;;;;5057326;28;20470;-83
2023/12/22 08:29:36;;;;;;;1.30;0.33;;;5.80;99.90;;;;;;5058396;28;20450;-83
2023/12/22 08:32:03;;;;;;;1.90;0.40;;;5.70;99.90;;;;;;5056832;28;21006;-84
2023/12/22 08:34:30;;;;;;;1.00;0.57;;;5.70;99.90;;;;;;5056417;28;20449;-85
2023/12/22 08:36:57;;;;;;;0.40;0.30;;;5.70;99.90;;;;;;5056470;28;20461;-85
2023/12/22 08:39:26;;;;;;;1.00;0.40;;;5.80;99.90;;;;;;5056167;28;20441;-85
2023/12/22 08:41:53;;;;;;;9.00;0.50;;;5.80;99.90;;;;;;5055962;28;20497;-83
2023/12/22 08:44:19;;;;;;;4.53;0.70;;;5.80;99.90;;;;;;5056825;28;20491;-82
2023/12/22 08:46:46;;;;;;;6.50;0.97;;;5.80;99.90;;;;;;5057250;28;20462;-85
2023/12/22 08:49:13;;;;;;;10.40;0.70;;;5.80;99.90;;;;;;5056603;28;20855;-85
2023/12/22 08:51:41;;;;;;;2.20;0.40;;;5.90;99.90;;;;;;5056282;28;20473;-86
2023/12/22 08:54:07;;;;;;;0.50;0.50;;;5.90;99.90;;;;;;5055507;28;20477;-85
2023/12/22 08:56:36;;;;;;;0.40;0.40;;;5.90;99.90;;;;;;5057286;28;20446;-85
2023/12/22 08:59:02;;;;;;;8.57;0.80;;;5.90;99.90;;;;;;5056707;28;20503;-84
2023/12/22 09:01:29;;;;;;;1.63;0.93;;;5.90;99.90;;;;;;5056684;28;20453;-85
2023/12/22 09:03:56;;;;;;;4.70;0.70;;;5.90;99.90;;;;;;5056289;28;20935;-84
2023/12/22 09:06:25;;;;;;;0.30;0.30;;;5.90;99.90;;;;;;5057974;28;20434;-85
2023/12/22 09:08:52;;;;;;;2.27;1.40;;;5.90;99.90;;;;;;5057690;28;20485;-82
2023/12/22 09:11:20;;;;;;;2.20;0.40;;;5.90;99.90;;;;;;5058718;28;20507;-84
2023/12/22 09:13:48;;;;;;;5.10;1.37;;;5.90;99.90;;;;;;5058708;28;20472;-85
2023/12/22 09:16:21;;;;;;;1.90;1.07;;;5.90;99.90;;;;;;5059541;28;20457;-83
2023/12/22 09:18:48;;;;;;;1.17;0.30;;;5.90;99.90;;;;;;5057935;28;20417;-84
2023/12/22 09:21:15;;;;;;;0.30;0.30;;;5.90;99.90;;;;;;5057459;28;20468;-84
2023/12/22 09:23:44;;;;;;;1.17;0.60;;;5.90;99.90;;;;;;5058183;28;20449;-82
2023/12/22 09:26:11;;;;;;;0.30;0.30;;;6.00;99.90;;;;;;5058082;28;20865;-84
2023/12/22 09:28:37;;;;;;;2.00;0.40;;;6.00;99.90;;;;;;5059311;28;20462;-83
2023/12/22 09:31:07;;;;;;;0.40;0.40;;;6.00;99.90;;;;;;5060790;28;20485;-84
2023/12/22 09:33:33;;;;;;;1.73;0.90;;;6.00;99.90;;;;;;5061790;28;20911;-83
2023/12/22 09:36:00;;;;;;;12.17;0.50;;;6.00;99.90;;;;;;5061876;28;20441;-84
2023/12/22 09:38:27;;;;;;;4.93;0.70;;;5.90;99.90;;;;;;5060614;28;20462;-84
2023/12/22 09:40:55;;;;;;;0.50;0.50;;;5.90;99.90;;;;;;5075311;28;20430;-83
2023/12/22 09:43:23;;;;;;;3.07;0.50;;;6.00;99.90;;;;;;5057419;28;20454;-83
2023/12/22 09:45:50;;;;;;;0.70;0.40;;;6.00;99.90;;;;;;5056332;28;20453;-84
2023/12/22 09:48:26;;;;;;;0.40;0.40;;;6.00;99.90;;;;;;5056390;28;20468;-84
2023/12/22 09:50:53;;;;;;;0.40;0.40;;;6.00;99.90;;;;;;5056306;28;20472;-84
2023/12/22 09:53:21;;;;;;;1.43;0.60;;;6.00;99.90;;;;;;5056328;28;20430;-84
2023/12/22 09:55:49;;;;;;;0.93;0.70;;;6.10;99.90;;;;;;5056754;28;20479;-84
2023/12/22 09:58:17;;;;;;;0.80;0.40;;;6.20;99.90;;;;;;5056469;28;20465;-84
2023/12/22 10:00:44;;;;;;;2.20;0.50;;;6.20;99.90;;;;;;5056859;28;20855;-84
2023/12/22 10:03:13;;;;;;;0.60;0.40;;;6.20;99.90;;;;;;5057235;28;20446;-84
2023/12/22 10:05:43;;;;;;;11.80;1.17;;;6.10;99.90;;;;;;5056756;28;20484;-83
2023/12/22 10:08:11;;;;;;;1.77;0.73;;;6.10;99.90;;;;;;5056473;28;20489;-83
2023/12/22 10:10:39;;;;;;;0.40;0.40;;;6.20;99.90;;;;;;5057849;28;20441;-83
2023/12/22 10:13:09;;;;;;;0.30;0.30;;;6.30;99.90;;;;;;5057309;28;20473;-84
2023/12/22 10:15:39;;;;;;;4.83;0.77;;;6.30;99.90;;;;;;5057974;28;20454;-84
2023/12/22 10:18:07;;;;;;;8.53;0.50;;;6.40;99.90;;;;;;5056778;28;20472;-84
2023/12/22 10:20:33;;;;;;;6.60;0.63;;;6.40;99.90;;;;;;5057109;28;20441;-84
2023/12/22 10:23:01;;;;;;;0.50;0.50;;;6.50;99.90;;;;;;5057891;28;20465;-84
2023/12/22 10:25:30;;;;;;;0.30;0.27;;;6.50;99.90;;;;;;5055879;28;20434;-85
2023/12/22 10:27:56;;;;;;;0.30;0.20;;;6.60;99.90;;;;;;5055650;28;20473;-85
2023/12/22 10:30:24;;;;;;;0.47;0.40;;;6.50;99.90;;;;;;5056347;28;20453;-83
2023/12/22 10:32:51;;;;;;;2.70;0.47;;;6.60;99.90;;;;;;5056541;28;20436;-84
2023/12/22 10:35:18;;;;;;;0.50;0.50;;;6.70;99.90;;;;;;5056518;28;20438;-84
2023/12/22 10:37:46;;;;;;;3.00;0.50;;;6.70;99.90;;;;;;5056108;28;20465;-85
2023/12/22 10:40:15;;;;;;;0.30;0.20;;;6.70;99.90;;;;;;5055067;28;20441;-84
2023/12/22 10:42:42;;;;;;;3.70;0.77;;;6.70;99.90;;;;;;5056308;28;20433;-84
2023/12/22 10:45:09;;;;;;;0.40;0.30;;;6.70;99.90;;;;;;5056602;28;20430;-85
2023/12/22 10:47:36;;;;;;;4.10;0.50;;;6.70;99.90;;;;;;5055583;28;20465;-84
2023/12/22 10:50:04;;;;;;;4.87;0.60;;;6.70;99.90;;;;;;5056387;28;20433;-84
2023/12/22 10:52:30;;;;;;;0.50;0.50;;;6.70;99.90;;;;;;5055304;28;20513;-85
2023/12/22 10:54:58;;;;;;;1.10;0.40;;;6.70;99.90;;;;;;5055837;28;20446;-85
2023/12/22 10:57:27;;;;;;;1.23;0.40;;;6.70;99.90;;;;;;5056010;28;20500;-84
2023/12/22 10:59:57;;;;;;;2.83;0.40;;;6.70;99.90;;;;;;5055952;28;20491;-84
2023/12/22 11:02:25;;;;;;;1.03;0.30;;;6.70;99.90;;;;;;5056519;28;20461;-85
2023/12/22 11:04:58;;;;;;;0.40;0.40;;;6.70;99.90;;;;;;5055687;28;20468;-85
2023/12/22 11:07:25;;;;;;;0.40;0.30;;;6.80;99.90;;;;;;5055569;28;20473;-84
2023/12/22 11:09:56;;;;;;;0.80;0.50;;;6.70;99.90;;;;;;5054966;28;20953;-85
2023/12/22 11:12:27;;;;;;;1.13;0.30;;;6.70;99.90;;;;;;5054980;28;20470;-85
2023/12/22 11:14:55;;;;;;;0.30;0.30;;;6.70;99.90;;;;;;5054981;28;20426;-85
2023/12/22 11:17:23;;;;;;;0.30;0.20;;;6.70;99.90;;;;;;5054531;28;20470;-85
2023/12/22 11:19:51;;;;;;;0.43;0.30;;;6.70;99.90;;;;;;5054321;28;20452;-85
2023/12/22 11:22:18;;;;;;;0.57;0.40;;;6.70;99.90;;;;;;5054720;28;20580;-85
2023/12/22 11:24:48;;;;;;;0.33;0.30;;;6.60;99.90;;;;;;5054943;28;20465;-84
2023/12/22 11:27:18;;;;;;;0.30;0.30;;;6.60;99.90;;;;;;5054831;28;20465;-85
2023/12/22 11:29:49;;;;;;;0.30;0.30;;;6.50;99.90;;;;;;5054921;28;20438;-84
2023/12/22 11:32:17;;;;;;;2.10;0.90;;;6.60;99.90;;;;;;5054681;28;20458;-84
2023/12/22 11:34:45;;;;;;;0.30;0.20;;;6.50;99.90;;;;;;5054620;28;20449;-84
2023/12/22 11:37:13;;;;;;;0.33;0.30;;;6.40;99.90;;;;;;5054866;28;20457;-83
2023/12/22 11:39:40;;;;;;;0.30;0.20;;;6.40;99.90;;;;;;5055134;28;20477;-84
2023/12/22 11:42:09;;;;;;;1.00;0.40;;;6.40;99.90;;;;;;5054363;28;20453;-84
2023/12/22 11:44:36;;;;;;;0.40;0.30;;;6.40;99.90;;;;;;5054515;28;20450;-85
2023/12/22 11:47:08;;;;;;;1.40;0.40;;;6.30;99.90;;;;;;5054500;28;20619;-85
2023/12/22 11:49:35;;;;;;;4.20;0.77;;;6.40;99.90;;;;;;5058579;28;20448;-85
2023/12/22 11:52:11;;;;;;;2.53;0.30;;;6.30;99.90;;;;;;5072487;28;20500;-83
2023/12/22 11:54:49;;;;;;;0.40;0.40;;;6.40;99.90;;;;;;5053801;28;20429;-85
2023/12/22 11:57:37;;;;;;;0.40;0.40;;;6.40;99.90;;;;;;5053773;28;20462;-84
2023/12/22 12:00:07;;;;;;;0.40;0.30;;;6.40;99.90;;;;;;5054240;28;20438;-85
2023/12/22 12:02:37;;;;;;;0.37;0.30;;;6.40;99.90;;;;;;5053652;28;20422;-84
2023/12/22 12:05:05;;;;;;;0.40;0.30;;;6.40;99.90;;;;;;5053457;28;20513;-84
2023/12/22 12:07:39;;;;;;;0.60;0.30;;;6.40;99.90;;;;;;5053224;28;20473;-85
2023/12/22 12:10:08;;;;;;;0.30;0.30;;;6.50;99.90;;;;;;5053630;28;20445;-85
2023/12/22 12:12:34;;;;;;;0.30;0.27;;;6.40;99.90;;;;;;5053393;28;21020;-85
2023/12/22 12:15:13;;;;;;;0.30;0.30;;;6.40;99.90;;;;;;5053660;28;20433;-85
2023/12/22 12:17:42;;;;;;;0.90;0.30;;;6.40;99.90;;;;;;5053158;28;20974;-86
2023/12/22 12:20:10;;;;;;;0.40;0.40;;;6.40;99.90;;;;;;5053459;28;20947;-86
2023/12/22 12:22:38;;;;;;;1.63;0.60;;;6.40;99.90;;;;;;5053620;28;20442;-86
2023/12/22 12:25:09;;;;;;;0.33;0.33;;;6.40;99.90;;;;;;5053217;28;20986;-86
2023/12/22 12:27:38;;;;;;;0.30;0.30;;;6.40;99.90;;;;;;5053391;28;20457;-85
2023/12/22 12:30:13;;;;;;;0.30;0.30;;;6.40;99.90;;;;;;5053455;28;20458;-86
2023/12/22 12:32:43;;;;;;;0.30;0.20;;;6.50;99.90;;;;;;5053392;28;20465;-86
2023/12/22 12:35:10;;;;;;;0.33;0.30;;;6.40;99.90;;;;;;5053174;28;21014;-86
2023/12/22 12:37:38;;;;;;;0.97;0.37;;;6.50;99.90;;;;;;5053517;28;20465;-85
2023/12/22 12:40:09;;;;;;;0.30;0.20;;;6.50;99.90;;;;;;5053524;28;20528;-86
2023/12/22 12:42:37;;;;;;;1.33;0.50;;;6.40;99.90;;;;;;5053463;28;20449;-85
2023/12/22 12:45:05;;;;;;;0.30;0.20;;;6.40;99.90;;;;;;5053462;28;20529;-85
2023/12/22 12:47:31;;;;;;;0.30;0.30;;;6.40;99.90;;;;;;5052972;28;20469;-85
2023/12/22 12:50:00;;;;;;;0.30;0.30;;;6.40;99.90;;;;;;5053409;28;20445;-85
2023/12/22 12:52:27;;;;;;;0.30;0.30;;;6.40;99.90;;;;;;5053233;28;20982;-85
2023/12/22 12:54:54;;;;;;;0.30;0.20;;;6.50;99.90;;;;;;5053466;28;20453;-85
2023/12/22 12:57:21;;;;;;;0.30;0.30;;;6.50;99.90;;;;;;5052925;28;21154;-84
2023/12/22 12:59:48;;;;;;;0.30;0.20;;;6.50;99.90;;;;;;5053499;28;20442;-85